createdAt,value
2023-01-29T00:00:00.763Z,9.00
2023-01-29T00:02:27.316Z,9.45
2023-01-29T00:08:21.531Z,9.02
2023-01-29T00:10:20.858Z,8.47
2023-01-29T00:10:49.035Z,9.23
2023-01-29T00:13:36.313Z,8.63
2023-01-29T00:16:03.647Z,8.15
2023-01-29T00:18:31.588Z,9.27
2023-01-29T00:20:59.733Z,8.27
2023-01-29T00:23:26.348Z,9.02
2023-01-29T00:25:52.847Z,9.98
2023-01-29T00:28:19.422Z,9.15
2023-01-29T00:30:45.841Z,9.73
2023-01-29T00:33:21.383Z,9.45
2023-01-29T00:35:48.832Z,10.23
2023-01-29T00:38:15.336Z,9.15
2023-01-29T00:41:00.294Z,9.80
2023-01-29T00:43:55.640Z,9.83
2023-01-29T00:46:22.240Z,9.90
2023-01-29T00:48:54.896Z,10.00
2023-01-29T00:51:22.381Z,9.60
2023-01-29T00:54:08.240Z,9.68
2023-01-29T00:56:36.767Z,9.53
2023-01-29T00:59:13.729Z,9.07
2023-01-29T01:01:58.819Z,10.02
2023-01-29T01:04:25.275Z,9.55
2023-01-29T01:06:51.763Z,9.27
2023-01-29T01:09:41.070Z,9.07
2023-01-29T01:12:07.657Z,8.48
2023-01-29T01:14:36.184Z,9.52
2023-01-29T01:17:02.685Z,9.35
2023-01-29T01:19:36.544Z,9.13
2023-01-29T01:22:04.999Z,9.73
2023-01-29T01:24:33.091Z,9.25
2023-01-29T01:26:59.587Z,9.75
2023-01-29T01:29:26.045Z,9.50
2023-01-29T01:31:54.880Z,9.05
2023-01-29T01:34:22.522Z,9.57
2023-01-29T01:36:49.229Z,8.57
2023-01-29T01:39:15.898Z,9.27
2023-01-29T01:41:44.760Z,9.57
2023-01-29T01:44:55.100Z,8.43
2023-01-29T01:47:43.041Z,9.20
2023-01-29T01:50:20.247Z,8.43
2023-01-29T01:52:57.942Z,9.10
2023-01-29T01:55:30.301Z,9.20
2023-01-29T01:58:04.548Z,8.52
2023-01-29T02:00:39.992Z,8.17
2023-01-29T02:03:29.568Z,8.55
2023-01-29T02:06:18.830Z,9.27
2023-01-29T02:09:36.587Z,9.07
2023-01-29T02:12:09.631Z,9.00
2023-01-29T02:14:41.081Z,8.23
2023-01-29T02:17:11.259Z,9.13
2023-01-29T02:20:07.812Z,9.75
2023-01-29T02:23:03.654Z,8.93
2023-01-29T02:25:47.436Z,9.35
2023-01-29T02:28:39.322Z,8.73
2023-01-29T02:31:29.144Z,8.85
2023-01-29T02:34:29.841Z,9.27
2023-01-29T02:37:13.920Z,8.50
2023-01-29T02:40:04.246Z,9.32
2023-01-29T02:43:08.996Z,8.43
2023-01-29T02:45:53.030Z,8.07
2023-01-29T02:48:23.926Z,8.75
2023-01-29T02:51:05.398Z,7.95
2023-01-29T02:53:50.563Z,8.60
2023-01-29T02:56:40.892Z,9.53
2023-01-29T02:59:25.516Z,8.93
2023-01-29T03:01:58.247Z,9.82
2023-01-29T03:04:48.829Z,8.73
2023-01-29T03:07:42.596Z,9.07
2023-01-29T03:10:17.591Z,8.43
2023-01-29T03:12:48.208Z,9.30
2023-01-29T03:15:46.939Z,9.48
2023-01-29T03:18:27.748Z,9.20
2023-01-29T03:21:02.033Z,10.00
2023-01-29T03:24:05.767Z,9.80
2023-01-29T03:26:50.940Z,8.95
2023-01-29T03:29:36.113Z,9.60
2023-01-29T03:32:06.730Z,9.57
2023-01-29T03:34:41.998Z,9.75
2023-01-29T03:37:22.464Z,9.43
2023-01-29T03:39:53.187Z,10.60
2023-01-29T03:42:42.628Z,10.15
2023-01-29T03:45:31.639Z,10.77
2023-01-29T03:48:29.410Z,10.05
2023-01-29T03:51:47.965Z,10.60
2023-01-29T03:54:40.063Z,9.63
2023-01-29T03:57:56.782Z,10.40
2023-01-29T04:00:39.275Z,9.02
2023-01-29T04:03:33.918Z,11.02
2023-01-29T04:06:17.023Z,9.23
2023-01-29T04:09:02.900Z,10.07
2023-01-29T04:11:29.672Z,10.57
2023-01-29T04:13:58.349Z,10.48
2023-01-29T04:16:40.986Z,10.20
2023-01-29T04:19:08.320Z,10.17
2023-01-29T04:21:39.745Z,10.38
2023-01-29T04:24:17.389Z,11.57
2023-01-29T04:27:09.285Z,11.57
2023-01-29T04:29:57.448Z,10.43
2023-01-29T04:32:38.934Z,11.13
2023-01-29T04:35:31.722Z,10.32
2023-01-29T04:38:12.889Z,10.75
2023-01-29T04:41:16.792Z,11.15
2023-01-29T04:44:15.080Z,11.35
2023-01-29T04:46:57.620Z,10.80
2023-01-29T04:49:37.240Z,10.18
2023-01-29T04:52:21.036Z,9.90
2023-01-29T04:54:51.468Z,10.45
2023-01-29T04:57:29.999Z,11.55
2023-01-29T05:00:14.907Z,11.03
2023-01-29T05:02:57.595Z,11.75
2023-01-29T05:05:24.096Z,10.90
2023-01-29T05:08:05.276Z,10.73
2023-01-29T05:11:15.594Z,11.35
2023-01-29T05:13:42.580Z,10.90
2023-01-29T05:16:41.986Z,11.50
2023-01-29T05:19:16.930Z,10.35
2023-01-29T05:22:04.286Z,11.18
2023-01-29T05:24:30.929Z,11.90
2023-01-29T05:27:19.098Z,10.70
2023-01-29T05:29:48.377Z,11.40
2023-01-29T05:32:16.092Z,11.80
2023-01-29T05:34:42.833Z,11.07
2023-01-29T05:37:11.485Z,11.43
2023-01-29T05:39:37.911Z,12.50
2023-01-29T05:42:16.563Z,11.70
2023-01-29T05:44:48.059Z,11.73
2023-01-29T05:47:14.625Z,11.07
2023-01-29T05:49:41.035Z,11.27
2023-01-29T05:52:13.844Z,12.00
2023-01-29T05:54:42.435Z,11.35
2023-01-29T05:57:22.251Z,11.75
2023-01-29T06:00:00.012Z,11.02
2023-01-29T06:02:31.755Z,10.82
2023-01-29T06:04:58.248Z,11.03
2023-01-29T06:07:41.705Z,11.27
2023-01-29T06:10:10.094Z,11.10
2023-01-29T06:12:36.485Z,11.75
2023-01-29T06:15:03.055Z,11.68
2023-01-29T06:17:31.577Z,11.00
2023-01-29T06:19:59.146Z,10.50
2023-01-29T06:22:25.682Z,11.23
2023-01-29T06:24:53.217Z,10.50
2023-01-29T06:27:20.859Z,11.20
2023-01-29T06:29:47.395Z,11.40
2023-01-29T06:32:17.052Z,10.65
2023-01-29T06:34:43.593Z,11.57
2023-01-29T06:37:10.129Z,11.00
2023-01-29T06:39:40.734Z,11.20
2023-01-29T06:42:07.194Z,10.27
2023-01-29T06:44:38.865Z,10.68
2023-01-29T06:47:08.326Z,10.68
2023-01-29T06:49:34.897Z,11.77
2023-01-29T06:52:11.707Z,10.57
2023-01-29T06:54:41.476Z,10.20
2023-01-29T06:57:17.186Z,10.18
2023-01-29T06:59:43.741Z,10.82
2023-01-29T07:02:10.238Z,10.45
2023-01-29T07:04:37.802Z,10.55
2023-01-29T07:07:13.403Z,10.93
2023-01-29T07:09:50.117Z,9.68
2023-01-29T07:12:16.634Z,10.70
2023-01-29T07:14:44.182Z,10.15
2023-01-29T07:17:10.730Z,10.95
2023-01-29T07:19:42.488Z,10.83
2023-01-29T07:22:17.171Z,9.50
2023-01-29T07:25:01.119Z,9.55
2023-01-29T07:27:36.771Z,10.00
2023-01-29T07:30:03.553Z,10.05
2023-01-29T07:32:30.097Z,9.13
2023-01-29T07:34:56.517Z,9.77
2023-01-29T07:37:28.480Z,10.07
2023-01-29T07:39:56.952Z,10.93
2023-01-29T07:42:23.596Z,10.40
2023-01-29T07:44:50.070Z,10.50
2023-01-29T07:47:18.581Z,10.13
2023-01-29T07:49:51.072Z,10.23
2023-01-29T07:52:22.581Z,11.02
2023-01-29T07:54:55.111Z,10.88
2023-01-29T07:57:21.677Z,10.43
2023-01-29T07:59:54.206Z,10.63
2023-01-29T08:02:23.903Z,10.73
2023-01-29T08:04:55.511Z,10.25
2023-01-29T08:07:49.229Z,10.52
2023-01-29T08:10:20.728Z,9.77
2023-01-29T08:12:47.443Z,10.05
2023-01-29T08:15:39.053Z,10.23
2023-01-29T08:18:07.336Z,9.70
2023-01-29T08:20:36.860Z,9.75
2023-01-29T08:23:10.224Z,9.30
2023-01-29T08:25:37.763Z,10.05
2023-01-29T08:28:15.730Z,10.15
2023-01-29T08:30:44.085Z,9.60
2023-01-29T08:33:10.925Z,9.48
2023-01-29T08:35:41.320Z,10.13
2023-01-29T08:38:07.780Z,9.90
2023-01-29T08:41:09.443Z,9.65
2023-01-29T08:43:37.052Z,10.95
2023-01-29T08:46:05.353Z,10.45
2023-01-29T08:48:34.339Z,10.20
2023-01-29T08:51:20.506Z,10.45
2023-01-29T08:53:46.983Z,10.80
2023-01-29T08:56:16.352Z,9.48
2023-01-29T08:58:44.283Z,9.95
2023-01-29T09:01:13.488Z,9.93
2023-01-29T09:03:44.690Z,10.85
2023-01-29T09:06:13.058Z,10.70
2023-01-29T09:08:40.005Z,9.85
2023-01-29T09:11:06.947Z,10.43
2023-01-29T09:13:34.104Z,10.50
2023-01-29T09:16:05.242Z,9.93
2023-01-29T09:18:32.046Z,10.30
2023-01-29T09:20:59.228Z,10.05
2023-01-29T09:23:26.322Z,10.65
2023-01-29T09:25:55.619Z,9.67
2023-01-29T09:28:38.328Z,9.18
2023-01-29T09:31:13.806Z,10.70
2023-01-29T09:33:47.483Z,9.40
2023-01-29T09:36:14.761Z,9.55
2023-01-29T09:38:41.971Z,9.77
2023-01-29T09:41:29.122Z,8.82
2023-01-29T09:44:21.348Z,9.82
2023-01-29T09:47:19.135Z,9.50
2023-01-29T09:50:04.262Z,9.88
2023-01-29T09:52:51.203Z,9.20
2023-01-29T09:55:44.020Z,9.73
2023-01-29T09:58:31.770Z,10.60
2023-01-29T10:01:33.189Z,9.15
2023-01-29T10:04:35.204Z,9.82
2023-01-29T10:07:17.286Z,9.93
2023-01-29T10:10:01.359Z,10.30
2023-01-29T10:13:12.064Z,9.45
2023-01-29T10:16:24.598Z,10.02
2023-01-29T10:19:29.387Z,10.35
2023-01-29T10:22:37.314Z,9.47
2023-01-29T10:25:06.778Z,10.00
2023-01-29T10:27:42.182Z,9.93
2023-01-29T10:30:41.345Z,9.82
2023-01-29T10:33:19.961Z,10.00
2023-01-29T10:35:55.899Z,9.50
2023-01-29T10:38:53.758Z,10.35
2023-01-29T10:41:33.084Z,10.00
2023-01-29T10:44:30.558Z,10.65
2023-01-29T10:47:12.403Z,10.55
2023-01-29T10:50:10.305Z,10.10
2023-01-29T10:53:03.795Z,10.05
2023-01-29T10:55:55.372Z,9.52
2023-01-29T10:58:41.435Z,11.00
2023-01-29T11:01:10.985Z,10.57
2023-01-29T11:03:39.761Z,10.73
2023-01-29T11:06:38.364Z,10.07
2023-01-29T11:09:49.427Z,10.48
2023-01-29T11:12:27.040Z,9.63
2023-01-29T11:15:15.348Z,10.52
2023-01-29T11:18:12.466Z,10.43
2023-01-29T11:20:44.688Z,11.68
2023-01-29T11:23:32.613Z,11.25
2023-01-29T11:26:12.511Z,11.45
2023-01-29T11:28:43.938Z,12.00
2023-01-29T11:31:22.984Z,11.50
2023-01-29T11:33:53.479Z,11.32
2023-01-29T11:36:34.937Z,11.75
2023-01-29T11:39:20.761Z,11.18
2023-01-29T11:41:53.257Z,12.30
2023-01-29T11:44:42.563Z,11.57
2023-01-29T11:47:41.850Z,11.93
2023-01-29T11:50:23.675Z,11.50
2023-01-29T11:52:50.156Z,11.93
2023-01-29T11:55:23.925Z,10.93
2023-01-29T11:57:54.656Z,12.57
2023-01-29T12:00:27.742Z,11.15
2023-01-29T12:03:32.067Z,12.35
2023-01-29T12:06:26.869Z,11.75
2023-01-29T12:09:02.009Z,12.30
2023-01-29T12:11:33.801Z,12.87
2023-01-29T12:14:03.438Z,11.98
2023-01-29T12:16:48.605Z,12.85
2023-01-29T12:27:18.185Z,12.03
2023-01-29T12:30:11.781Z,12.10
2023-01-29T12:33:01.367Z,12.18
2023-01-29T12:35:35.040Z,11.98
2023-01-29T12:38:18.559Z,13.48
2023-01-29T12:41:06.039Z,11.37
2023-01-29T12:43:48.390Z,12.73
2023-01-29T12:46:29.363Z,13.07
2023-01-29T12:49:04.039Z,12.35
2023-01-29T12:51:40.203Z,12.30
2023-01-29T12:54:18.570Z,11.83
2023-01-29T12:56:51.631Z,13.27
2023-01-29T12:59:32.043Z,12.63
2023-01-29T13:02:07.561Z,11.82
2023-01-29T13:04:34.710Z,12.50
2023-01-29T13:07:16.319Z,11.93
2023-01-29T13:09:53.480Z,12.63
2023-01-29T13:12:22.954Z,13.52
2023-01-29T13:14:49.581Z,12.75
2023-01-29T13:17:41.126Z,13.98
2023-01-29T13:20:23.375Z,13.17
2023-01-29T13:22:53.546Z,13.18
2023-01-29T13:25:26.013Z,13.00
2023-01-29T13:27:55.156Z,12.85
2023-01-29T13:30:34.506Z,13.82
2023-01-29T13:33:11.350Z,12.97
2023-01-29T13:35:42.428Z,12.43
2023-01-29T13:38:30.679Z,14.18
2023-01-29T13:41:02.719Z,13.15
2023-01-29T13:43:36.511Z,12.93
2023-01-29T13:46:19.331Z,12.80
2023-01-29T13:48:49.146Z,11.70
2023-01-29T13:51:21.994Z,13.90
2023-01-29T13:54:00.723Z,12.32
2023-01-29T13:56:33.450Z,14.35
2023-01-29T13:59:02.920Z,13.57
2023-01-29T14:01:47.931Z,12.10
2023-01-29T14:04:26.947Z,12.90
2023-01-29T14:06:55.513Z,12.73
2023-01-29T14:09:38.175Z,12.77
2023-01-29T14:12:25.156Z,12.33
2023-01-29T14:15:21.181Z,11.32
2023-01-29T14:18:24.279Z,13.88
2023-01-29T14:20:56.644Z,11.43
2023-01-29T14:23:52.539Z,13.40
2023-01-29T14:26:18.965Z,12.10
2023-01-29T14:28:53.693Z,12.50
2023-01-29T14:31:35.492Z,12.20
2023-01-29T14:34:28.036Z,12.43
2023-01-29T14:37:21.072Z,11.80
2023-01-29T14:39:53.038Z,10.83
2023-01-29T14:42:25.019Z,11.80
2023-01-29T14:44:59.644Z,12.32
2023-01-29T14:47:40.372Z,11.45
2023-01-29T14:50:29.329Z,11.93
2023-01-29T14:53:28.359Z,10.83
2023-01-29T14:56:01.892Z,11.75
2023-01-29T14:58:53.220Z,12.13
2023-01-29T15:01:35.978Z,10.65
2023-01-29T15:04:14.035Z,11.75
2023-01-29T15:06:47.304Z,11.33
2023-01-29T15:09:22.061Z,11.55
2023-01-29T15:12:16.704Z,12.63
2023-01-29T15:15:05.822Z,10.43
2023-01-29T15:17:47.690Z,12.68
2023-01-29T15:20:35.813Z,12.20
2023-01-29T15:23:03.532Z,10.27
2023-01-29T15:26:03.300Z,10.70
2023-01-29T15:28:33.026Z,10.93
2023-01-29T15:31:04.365Z,11.10
2023-01-29T15:33:33.544Z,11.13
2023-01-29T15:36:07.497Z,11.40
2023-01-29T15:38:36.093Z,9.90
2023-01-29T15:41:14.961Z,10.35
2023-01-29T15:43:47.154Z,10.57
2023-01-29T15:46:33.808Z,11.27
2023-01-29T15:49:07.392Z,11.27
2023-01-29T15:51:34.400Z,10.52
2023-01-29T15:54:03.733Z,10.40
2023-01-29T15:56:38.370Z,10.85
2023-01-29T15:59:09.680Z,10.07
2023-01-29T16:01:36.631Z,10.48
2023-01-29T16:04:03.906Z,10.05
2023-01-29T16:06:36.678Z,9.90
2023-01-29T16:09:05.592Z,11.50
2023-01-29T16:11:34.088Z,10.73
2023-01-29T16:14:02.062Z,10.80
2023-01-29T16:16:28.991Z,10.48
2023-01-29T16:19:00.891Z,12.10
2023-01-29T16:21:33.530Z,10.50
2023-01-29T16:24:02.081Z,11.40
2023-01-29T16:26:32.928Z,10.27
2023-01-29T16:29:05.368Z,10.75
2023-01-29T16:31:32.936Z,10.98
2023-01-29T16:34:07.044Z,10.27
2023-01-29T16:36:33.631Z,11.37
2023-01-29T16:39:02.184Z,10.60
2023-01-29T16:41:35.885Z,10.80
2023-01-29T16:44:15.580Z,10.10
2023-01-29T16:46:46.831Z,11.20
2023-01-29T16:49:28.195Z,11.60
2023-01-29T16:51:56.503Z,11.13
2023-01-29T16:54:27.572Z,11.80
2023-01-29T16:57:00.393Z,12.13
2023-01-29T16:59:35.501Z,12.75
2023-01-29T17:02:03.211Z,11.50
2023-01-29T17:04:29.752Z,11.85
2023-01-29T17:06:59.290Z,12.20
2023-01-29T17:09:35.058Z,11.88
2023-01-29T17:12:15.086Z,11.73
2023-01-29T17:14:56.627Z,12.57
2023-01-29T17:17:29.438Z,11.77
2023-01-29T17:19:56.117Z,13.82
2023-01-29T17:22:22.585Z,12.45
2023-01-29T17:24:51.470Z,13.00
2023-01-29T17:27:25.018Z,11.80
2023-01-29T17:29:56.697Z,12.48
2023-01-29T17:32:44.807Z,12.65
2023-01-29T17:35:17.364Z,12.05
2023-01-29T17:37:44.381Z,13.10
2023-01-29T17:40:43.859Z,12.23
2023-01-29T17:43:11.877Z,12.10
2023-01-29T17:45:39.490Z,12.35
2023-01-29T17:48:13.959Z,12.68
2023-01-29T17:50:43.612Z,11.63
2023-01-29T17:53:09.984Z,13.40
2023-01-29T17:55:36.358Z,12.15
2023-01-29T17:58:02.765Z,12.05
2023-01-29T18:00:29.877Z,11.90
2023-01-29T18:02:57.916Z,12.57
2023-01-29T18:05:24.387Z,13.50
2023-01-29T18:07:52.201Z,12.27
2023-01-29T18:10:21.465Z,12.07
2023-01-29T18:12:47.931Z,13.35
2023-01-29T18:15:14.447Z,13.07
2023-01-29T18:17:41.577Z,11.90
2023-01-29T18:20:16.352Z,11.82
2023-01-29T18:22:42.744Z,12.65
2023-01-29T18:25:09.461Z,12.63
2023-01-29T18:27:35.845Z,12.00
2023-01-29T18:30:02.200Z,12.37
2023-01-29T18:32:28.692Z,12.65
2023-01-29T18:34:55.076Z,12.32
2023-01-29T18:37:21.536Z,12.20
2023-01-29T18:39:47.936Z,12.20
2023-01-29T18:42:14.324Z,11.40
2023-01-29T18:44:40.964Z,12.70
2023-01-29T18:47:07.403Z,12.73
2023-01-29T18:49:34.195Z,12.50
2023-01-29T18:52:00.559Z,12.48
2023-01-29T18:54:26.941Z,11.93
2023-01-29T18:57:04.269Z,12.35
2023-01-29T18:59:39.690Z,13.35
2023-01-29T19:02:06.244Z,12.50
2023-01-29T19:04:32.709Z,12.90
2023-01-29T19:06:59.056Z,11.23
2023-01-29T19:09:25.579Z,11.98
2023-01-29T19:11:52.071Z,12.77
2023-01-29T19:14:18.553Z,11.55
2023-01-29T19:16:45.072Z,11.95
2023-01-29T19:19:11.598Z,11.77
2023-01-29T19:21:38.151Z,11.48
2023-01-29T19:24:05.025Z,12.40
2023-01-29T19:26:33.983Z,12.43
2023-01-29T19:29:00.918Z,12.55
2023-01-29T19:31:27.742Z,12.70
2023-01-29T19:33:54.494Z,12.13
2023-01-29T19:36:21.082Z,12.38
2023-01-29T19:38:48.996Z,12.50
2023-01-29T19:41:15.636Z,12.63
2023-01-29T19:43:42.997Z,12.47
2023-01-29T19:46:10.372Z,11.43
2023-01-29T19:48:36.930Z,12.15
2023-01-29T19:51:08.439Z,12.75
2023-01-29T19:53:45.432Z,11.98
2023-01-29T19:56:16.095Z,12.27
2023-01-29T19:58:43.112Z,12.52
2023-01-29T20:01:17.654Z,12.57
2023-01-29T20:03:48.275Z,11.75
2023-01-29T20:06:22.792Z,13.23
2023-01-29T20:08:49.672Z,11.53
2023-01-29T20:11:18.170Z,11.45
2023-01-29T20:13:47.261Z,12.52
2023-01-29T20:16:13.891Z,11.95
2023-01-29T20:18:40.298Z,12.25
2023-01-29T20:21:10.703Z,13.63
2023-01-29T20:23:39.776Z,11.45
2023-01-29T20:26:07.817Z,13.35
2023-01-29T20:28:34.972Z,13.57
2023-01-29T20:31:02.123Z,13.48
2023-01-29T20:33:29.057Z,13.43
2023-01-29T20:35:57.419Z,13.20
2023-01-29T20:38:26.044Z,13.38
2023-01-29T20:40:52.439Z,13.35
2023-01-29T20:43:18.862Z,13.23
2023-01-29T20:45:45.330Z,13.03
2023-01-29T20:48:11.987Z,13.70
2023-01-29T20:50:38.354Z,13.20
2023-01-29T20:53:04.926Z,13.30
2023-01-29T20:55:31.633Z,14.40
2023-01-29T20:58:05.434Z,14.30
2023-01-29T21:00:33.525Z,12.85
2023-01-29T21:02:59.969Z,13.18
2023-01-29T21:05:26.399Z,12.80
2023-01-29T21:07:52.813Z,13.70
2023-01-29T21:10:19.663Z,11.77
2023-01-29T21:12:46.348Z,12.90
2023-01-29T21:15:12.933Z,12.93
2023-01-29T21:17:39.342Z,12.38
2023-01-29T21:20:08.209Z,12.75
2023-01-29T21:22:34.848Z,11.93
2023-01-29T21:25:01.221Z,13.73
2023-01-29T21:27:27.600Z,13.73
2023-01-29T21:29:54.019Z,11.98
2023-01-29T21:32:20.423Z,13.00
2023-01-29T21:34:46.833Z,11.97
2023-01-29T21:37:13.187Z,13.27
2023-01-29T21:39:39.585Z,13.13
2023-01-29T21:42:24.853Z,13.98
2023-01-29T21:44:51.209Z,13.25
2023-01-29T21:47:17.805Z,12.83
2023-01-29T21:49:44.616Z,12.70
2023-01-29T21:52:12.688Z,12.80
2023-01-29T21:54:40.092Z,12.77
2023-01-29T21:57:11.183Z,13.13
2023-01-29T21:59:37.738Z,12.60
2023-01-29T22:02:04.245Z,12.57
2023-01-29T22:04:30.662Z,13.65
2023-01-29T22:06:57.377Z,12.02
2023-01-29T22:09:24.041Z,12.35
2023-01-29T22:11:50.552Z,12.70
2023-01-29T22:14:18.364Z,11.98
2023-01-29T22:16:45.418Z,12.40
2023-01-29T22:19:12.980Z,12.57
2023-01-29T22:21:40.250Z,13.07
2023-01-29T22:24:07.439Z,12.43
2023-01-29T22:26:48.634Z,12.15
2023-01-29T22:29:18.202Z,13.13
2023-01-29T22:31:44.998Z,12.32
2023-01-29T22:34:46.389Z,13.45
2023-01-29T22:37:12.829Z,12.83
2023-01-29T22:39:39.302Z,12.80
2023-01-29T22:42:05.864Z,12.88
2023-01-29T22:44:32.347Z,12.55
2023-01-29T22:47:06.693Z,12.95
2023-01-29T22:49:33.082Z,13.47
2023-01-29T22:52:11.567Z,13.15
2023-01-29T22:54:54.365Z,13.40
2023-01-29T22:57:20.718Z,11.93
2023-01-29T22:59:55.162Z,13.00
2023-01-29T23:02:22.228Z,12.20
2023-01-29T23:05:01.099Z,13.32
2023-01-29T23:07:27.546Z,12.30
2023-01-29T23:09:53.926Z,12.05
2023-01-29T23:12:20.305Z,11.68
2023-01-29T23:14:47.060Z,11.60
2023-01-29T23:17:13.479Z,12.10
2023-01-29T23:19:39.923Z,13.48
2023-01-29T23:22:06.397Z,12.27
2023-01-29T23:24:32.926Z,13.48
2023-01-29T23:27:16.561Z,12.10
2023-01-29T23:29:47.661Z,11.73
2023-01-29T23:32:28.425Z,11.82
2023-01-29T23:34:54.993Z,11.00
2023-01-29T23:37:21.409Z,12.38
2023-01-29T23:39:48.410Z,12.10
2023-01-29T23:42:48.969Z,11.57
2023-01-29T23:45:15.373Z,11.63
2023-01-29T23:47:41.758Z,12.40
2023-01-29T23:50:08.807Z,11.45
2023-01-29T23:52:35.204Z,11.60
2023-01-29T23:55:01.599Z,10.90
2023-01-29T23:57:40.193Z,11.38
